sensor_id;sensor_type;location;lat;lon;timestamp;pressure;altitude;pressure_sealevel;temperature;humidity
31239;BME280;17871;31.584;74.450;2023-05-29T00:01:06;98057.13;;;28.33;58.98
31239;BME280;17871;31.584;74.450;2023-05-29T00:03:42;98059.19;;;28.53;58.55
31239;BME280;17871;31.584;74.450;2023-05-29T00:06:21;98057.19;;;28.69;57.63
31239;BME280;17871;31.584;74.450;2023-05-29T00:08:55;98052.13;;;28.66;57.99
31239;BME280;17871;31.584;74.450;2023-05-29T00:11:30;98059.44;;;28.38;58.69
31239;BME280;17871;31.584;74.450;2023-05-29T00:14:03;98059.34;;;28.26;59.51
31239;BME280;17871;31.584;74.450;2023-05-29T00:17:01;98062.09;;;28.25;59.38
31239;BME280;17871;31.584;74.450;2023-05-29T00:19:35;98061.56;;;28.20;59.76
31239;BME280;17871;31.584;74.450;2023-05-29T00:22:09;98064.25;;;27.93;59.98
31239;BME280;17871;31.584;74.450;2023-05-29T00:25:00;98065.53;;;28.13;60.01
31239;BME280;17871;31.584;74.450;2023-05-29T00:27:34;98078.47;;;28.16;60.08
31239;BME280;17871;31.584;74.450;2023-05-29T00:30:09;98076.78;;;28.27;59.21
31239;BME280;17871;31.584;74.450;2023-05-29T00:36:02;98091.63;;;28.41;59.34
31239;BME280;17871;31.584;74.450;2023-05-29T00:38:38;98092.88;;;28.48;58.78
31239;BME280;17871;31.584;74.450;2023-05-29T00:41:30;98098.84;;;28.50;58.56
31239;BME280;17871;31.584;74.450;2023-05-29T00:44:04;98096.84;;;28.66;58.99
31239;BME280;17871;31.584;74.450;2023-05-29T00:46:39;98108.84;;;28.45;58.79
31239;BME280;17871;31.584;74.450;2023-05-29T00:49:30;98110.59;;;28.82;58.37
31239;BME280;17871;31.584;74.450;2023-05-29T00:52:04;98109.59;;;28.96;58.33
31239;BME280;17871;31.584;74.450;2023-05-29T00:54:43;98109.78;;;29.06;58.04
31239;BME280;17871;31.584;74.450;2023-05-29T00:57:37;98115.06;;;29.06;58.81
31239;BME280;17871;31.584;74.450;2023-05-29T01:00:12;98123.06;;;29.04;58.42
31239;BME280;17871;31.584;74.450;2023-05-29T01:02:51;98131.47;;;29.09;59.13
31239;BME280;17871;31.584;74.450;2023-05-29T01:05:26;98131.28;;;29.00;58.96
31239;BME280;17871;31.584;74.450;2023-05-29T01:08:02;98137.13;;;29.16;58.73
31239;BME280;17871;31.584;74.450;2023-05-29T01:10:37;98142.78;;;29.22;58.06
31239;BME280;17871;31.584;74.450;2023-05-29T01:13:32;98155.22;;;29.33;58.53
31239;BME280;17871;31.584;74.450;2023-05-29T01:16:14;98163.81;;;29.35;58.34
31239;BME280;17871;31.584;74.450;2023-05-29T01:19:05;98185.34;;;29.29;58.18
31239;BME280;17871;31.584;74.450;2023-05-29T01:22:06;98192.28;;;29.30;57.91
31239;BME280;17871;31.584;74.450;2023-05-29T01:28:41;98203.31;;;29.35;57.85
31239;BME280;17871;31.584;74.450;2023-05-29T01:31:23;98218.75;;;29.52;58.11
31239;BME280;17871;31.584;74.450;2023-05-29T01:33:59;98228.97;;;29.44;58.34
31239;BME280;17871;31.584;74.450;2023-05-29T01:36:33;98236.25;;;29.53;57.66
31239;BME280;17871;31.584;74.450;2023-05-29T01:39:07;98245.75;;;29.43;58.94
31239;BME280;17871;31.584;74.450;2023-05-29T01:41:56;98253.94;;;29.51;58.39
31239;BME280;17871;31.584;74.450;2023-05-29T01:44:36;98259.72;;;29.56;58.12
31239;BME280;17871;31.584;74.450;2023-05-29T01:47:22;98250.31;;;29.65;58.38
31239;BME280;17871;31.584;74.450;2023-05-29T01:49:57;98237.41;;;29.49;59.09
31239;BME280;17871;31.584;74.450;2023-05-29T01:52:32;98246.78;;;29.77;57.65
31239;BME280;17871;31.584;74.450;2023-05-29T01:55:08;98244.34;;;29.87;57.86
31239;BME280;17871;31.584;74.450;2023-05-29T02:00:43;98284.38;;;29.92;57.54
31239;BME280;17871;31.584;74.450;2023-05-29T02:03:37;98294.69;;;29.95;57.66
31239;BME280;17871;31.584;74.450;2023-05-29T02:06:22;98295.53;;;30.19;57.29
31239;BME280;17871;31.584;74.450;2023-05-29T02:08:56;98281.63;;;30.41;55.97
31239;BME280;17871;31.584;74.450;2023-05-29T02:11:30;98281.53;;;30.53;56.10
31239;BME280;17871;31.584;74.450;2023-05-29T02:14:06;98271.63;;;30.68;55.75
31239;BME280;17871;31.584;74.450;2023-05-29T02:16:40;98293.13;;;30.85;54.52
31239;BME280;17871;31.584;74.450;2023-05-29T02:19:18;98310.81;;;30.61;55.20
31239;BME280;17871;31.584;74.450;2023-05-29T02:21:54;98297.34;;;30.42;55.95
31239;BME280;17871;31.584;74.450;2023-05-29T02:27:18;98301.22;;;30.60;55.19
31239;BME280;17871;31.584;74.450;2023-05-29T02:29:52;98303.56;;;30.41;55.22
31239;BME280;17871;31.584;74.450;2023-05-29T02:32:26;98301.59;;;30.08;55.04
31239;BME280;17871;31.584;74.450;2023-05-29T02:35:04;98277.88;;;29.84;56.28
31239;BME280;17871;31.584;74.450;2023-05-29T02:37:39;98278.69;;;30.32;55.05
31239;BME280;17871;31.584;74.450;2023-05-29T02:40:20;98294.28;;;30.59;54.77
31239;BME280;17871;31.584;74.450;2023-05-29T02:43:23;98296.41;;;30.54;54.99
31239;BME280;17871;31.584;74.450;2023-05-29T02:45:58;98289.47;;;30.29;55.10
31239;BME280;17871;31.584;74.450;2023-05-29T02:48:33;98284.16;;;30.42;55.89
31239;BME280;17871;31.584;74.450;2023-05-29T02:51:06;98285.25;;;30.51;55.21
31239;BME280;17871;31.584;74.450;2023-05-29T02:53:40;98282.13;;;30.57;54.92
31239;BME280;17871;31.584;74.450;2023-05-29T02:56:20;98276.84;;;30.46;55.53
31239;BME280;17871;31.584;74.450;2023-05-29T03:02:00;98279.41;;;30.58;54.61
31239;BME280;17871;31.584;74.450;2023-05-29T03:04:29;98273.66;;;30.64;54.57
31239;BME280;17871;31.584;74.450;2023-05-29T03:06:58;98273.16;;;30.70;54.69
31239;BME280;17871;31.584;74.450;2023-05-29T03:09:31;98274.81;;;30.49;54.93
31239;BME280;17871;31.584;74.450;2023-05-29T03:12:00;98277.38;;;30.62;54.83
31239;BME280;17871;31.584;74.450;2023-05-29T03:14:30;98259.28;;;30.68;55.34
31239;BME280;17871;31.584;74.450;2023-05-29T03:17:09;98256.66;;;30.91;54.18
31239;BME280;17871;31.584;74.450;2023-05-29T03:19:39;98259.78;;;30.84;54.88
31239;BME280;17871;31.584;74.450;2023-05-29T03:22:08;98262.03;;;30.89;55.03
31239;BME280;17871;31.584;74.450;2023-05-29T03:24:39;98263.38;;;30.72;54.39
31239;BME280;17871;31.584;74.450;2023-05-29T03:27:08;98253.78;;;30.94;54.44
31239;BME280;17871;31.584;74.450;2023-05-29T03:29:40;98265.69;;;31.21;53.71
31239;BME280;17871;31.584;74.450;2023-05-29T03:32:10;98258.97;;;31.06;53.89
31239;BME280;17871;31.584;74.450;2023-05-29T03:34:39;98253.56;;;30.97;54.51
31239;BME280;17871;31.584;74.450;2023-05-29T03:37:08;98258.84;;;30.97;54.80
31239;BME280;17871;31.584;74.450;2023-05-29T03:39:38;98253.28;;;30.77;55.11
31239;BME280;17871;31.584;74.450;2023-05-29T03:42:09;98250.28;;;30.93;54.58
31239;BME280;17871;31.584;74.450;2023-05-29T03:44:38;98259.19;;;31.03;53.48
31239;BME280;17871;31.584;74.450;2023-05-29T03:47:09;98271.31;;;31.17;53.90
31239;BME280;17871;31.584;74.450;2023-05-29T03:49:39;98271.06;;;31.42;53.28
31239;BME280;17871;31.584;74.450;2023-05-29T03:52:09;98270.59;;;31.48;53.87
31239;BME280;17871;31.584;74.450;2023-05-29T03:54:38;98263.28;;;31.41;53.63
31239;BME280;17871;31.584;74.450;2023-05-29T03:57:08;98263.41;;;31.06;53.66
31239;BME280;17871;31.584;74.450;2023-05-29T04:02:14;98268.19;;;31.34;53.42
31239;BME280;17871;31.584;74.450;2023-05-29T04:04:46;98275.13;;;31.68;52.94
31239;BME280;17871;31.584;74.450;2023-05-29T04:07:27;98255.81;;;31.68;52.27
31239;BME280;17871;31.584;74.450;2023-05-29T04:09:57;98276.06;;;31.78;52.30
31239;BME280;17871;31.584;74.450;2023-05-29T04:12:27;98281.69;;;31.96;53.06
31239;BME280;17871;31.584;74.450;2023-05-29T04:14:57;98279.44;;;31.80;51.64
31239;BME280;17871;31.584;74.450;2023-05-29T04:17:26;98289.09;;;32.02;52.30
31239;BME280;17871;31.584;74.450;2023-05-29T04:19:56;98296.38;;;32.21;51.20
31239;BME280;17871;31.584;74.450;2023-05-29T04:22:27;98273.69;;;32.18;51.90
31239;BME280;17871;31.584;74.450;2023-05-29T04:24:57;98283.63;;;32.26;50.92
31239;BME280;17871;31.584;74.450;2023-05-29T04:27:27;98275.75;;;32.15;51.35
31239;BME280;17871;31.584;74.450;2023-05-29T04:29:56;98273.06;;;32.26;51.36
31239;BME280;17871;31.584;74.450;2023-05-29T04:35:34;98287.38;;;32.76;50.37
31239;BME280;17871;31.584;74.450;2023-05-29T04:38:11;98297.16;;;32.64;49.78
31239;BME280;17871;31.584;74.450;2023-05-29T04:41:04;98320.88;;;32.86;50.65
31239;BME280;17871;31.584;74.450;2023-05-29T04:43:36;98318.25;;;32.86;49.76
31239;BME280;17871;31.584;74.450;2023-05-29T04:46:06;98317.22;;;32.46;50.83
31239;BME280;17871;31.584;74.450;2023-05-29T04:48:38;98320.31;;;32.83;50.44
31239;BME280;17871;31.584;74.450;2023-05-29T04:51:13;98333.03;;;32.89;50.38
31239;BME280;17871;31.584;74.450;2023-05-29T04:53:47;98321.09;;;33.04;49.95
31239;BME280;17871;31.584;74.450;2023-05-29T04:59:13;98324.34;;;33.08;49.48
31239;BME280;17871;31.584;74.450;2023-05-29T05:05:08;98324.72;;;33.54;49.54
31239;BME280;17871;31.584;74.450;2023-05-29T05:07:38;98334.81;;;33.39;49.31
31239;BME280;17871;31.584;74.450;2023-05-29T05:10:08;98334.16;;;33.47;49.18
31239;BME280;17871;31.584;74.450;2023-05-29T05:12:38;98316.69;;;33.35;49.25
31239;BME280;17871;31.584;74.450;2023-05-29T05:15:09;98322.84;;;33.35;49.10
31239;BME280;17871;31.584;74.450;2023-05-29T05:17:39;98325.38;;;33.77;48.54
31239;BME280;17871;31.584;74.450;2023-05-29T05:20:09;98320.91;;;33.77;48.56
31239;BME280;17871;31.584;74.450;2023-05-29T05:22:39;98312.41;;;33.83;47.99
31239;BME280;17871;31.584;74.450;2023-05-29T05:25:28;98313.94;;;33.96;48.78
31239;BME280;17871;31.584;74.450;2023-05-29T05:28:00;98306.00;;;33.96;47.75
31239;BME280;17871;31.584;74.450;2023-05-29T05:30:31;98302.69;;;34.32;47.89
31239;BME280;17871;31.584;74.450;2023-05-29T05:33:00;98297.13;;;34.16;47.87
31239;BME280;17871;31.584;74.450;2023-05-29T05:35:32;98289.03;;;34.17;46.79
31239;BME280;17871;31.584;74.450;2023-05-29T05:38:02;98299.63;;;34.46;46.23
31239;BME280;17871;31.584;74.450;2023-05-29T05:40:32;98301.03;;;34.69;46.00
31239;BME280;17871;31.584;74.450;2023-05-29T05:43:36;98314.13;;;34.90;45.79
31239;BME280;17871;31.584;74.450;2023-05-29T05:46:22;98314.03;;;35.28;45.04
31239;BME280;17871;31.584;74.450;2023-05-29T05:48:55;98309.97;;;34.87;44.97
31239;BME280;17871;31.584;74.450;2023-05-29T05:51:26;98311.56;;;35.08;46.37
31239;BME280;17871;31.584;74.450;2023-05-29T05:53:55;98311.53;;;35.27;45.32
31239;BME280;17871;31.584;74.450;2023-05-29T05:56:26;98311.00;;;35.04;44.86
31239;BME280;17871;31.584;74.450;2023-05-29T06:05:42;98294.53;;;34.91;44.84
31239;BME280;17871;31.584;74.450;2023-05-29T06:08:35;98301.72;;;34.81;45.98
31239;BME280;17871;31.584;74.450;2023-05-29T06:11:06;98298.16;;;35.00;45.23
31239;BME280;17871;31.584;74.450;2023-05-29T06:13:42;98294.50;;;35.20;46.66
31239;BME280;17871;31.584;74.450;2023-05-29T06:16:25;98294.59;;;35.65;44.71
31239;BME280;17871;31.584;74.450;2023-05-29T06:18:57;98289.66;;;34.96;43.92
31239;BME280;17871;31.584;74.450;2023-05-29T06:21:37;98279.16;;;35.41;44.01
31239;BME280;17871;31.584;74.450;2023-05-29T06:24:08;98274.91;;;35.48;43.70
31239;BME280;17871;31.584;74.450;2023-05-29T06:26:40;98286.34;;;35.85;43.21
31239;BME280;17871;31.584;74.450;2023-05-29T06:29:30;98281.97;;;36.29;43.61
31239;BME280;17871;31.584;74.450;2023-05-29T06:32:02;98291.22;;;36.78;41.66
31239;BME280;17871;31.584;74.450;2023-05-29T06:34:37;98272.09;;;37.09;40.74
31239;BME280;17871;31.584;74.450;2023-05-29T06:37:09;98270.00;;;37.54;40.98
31239;BME280;17871;31.584;74.450;2023-05-29T06:39:56;98270.13;;;36.85;40.23
31239;BME280;17871;31.584;74.450;2023-05-29T06:42:42;98263.34;;;37.58;40.56
31239;BME280;17871;31.584;74.450;2023-05-29T06:48:22;98282.41;;;37.79;38.83
31239;BME280;17871;31.584;74.450;2023-05-29T06:58:25;98288.19;;;38.25;39.75
31239;BME280;17871;31.584;74.450;2023-05-29T07:04:23;98281.84;;;38.18;38.71
31239;BME280;17871;31.584;74.450;2023-05-29T07:06:53;98277.19;;;38.84;37.48
31239;BME280;17871;31.584;74.450;2023-05-29T07:09:29;98271.34;;;38.73;37.99
31239;BME280;17871;31.584;74.450;2023-05-29T07:12:14;98269.00;;;38.70;38.00
31239;BME280;17871;31.584;74.450;2023-05-29T07:14:46;98262.16;;;38.83;37.24
31239;BME280;17871;31.584;74.450;2023-05-29T07:17:36;98267.66;;;38.90;37.23
31239;BME280;17871;31.584;74.450;2023-05-29T07:20:20;98261.97;;;38.93;37.31
31239;BME280;17871;31.584;74.450;2023-05-29T07:22:52;98262.66;;;38.71;37.90
31239;BME280;17871;31.584;74.450;2023-05-29T07:25:21;98256.13;;;38.89;37.14
31239;BME280;17871;31.584;74.450;2023-05-29T07:28:03;98256.22;;;39.28;36.49
31239;BME280;17871;31.584;74.450;2023-05-29T07:30:50;98252.81;;;38.55;37.08
31239;BME280;17871;31.584;74.450;2023-05-29T07:33:21;98250.78;;;38.89;37.09
31239;BME280;17871;31.584;74.450;2023-05-29T07:38:56;98250.19;;;39.26;37.19
31239;BME280;17871;31.584;74.450;2023-05-29T07:41:31;98252.63;;;39.44;35.84
31239;BME280;17871;31.584;74.450;2023-05-29T07:44:01;98246.16;;;39.30;35.74
31239;BME280;17871;31.584;74.450;2023-05-29T07:46:31;98246.00;;;39.24;35.79
31239;BME280;17871;31.584;74.450;2023-05-29T07:49:23;98243.75;;;39.43;35.70
31239;BME280;17871;31.584;74.450;2023-05-29T07:51:55;98238.19;;;39.53;35.86
31239;BME280;17871;31.584;74.450;2023-05-29T07:54:27;98230.94;;;39.23;37.33
31239;BME280;17871;31.584;74.450;2023-05-29T07:57:00;98231.41;;;38.87;36.31
31239;BME280;17871;31.584;74.450;2023-05-29T07:59:31;98228.53;;;38.97;37.27
31239;BME280;17871;31.584;74.450;2023-05-29T08:02:08;98228.72;;;38.96;36.02
31239;BME280;17871;31.584;74.450;2023-05-29T08:04:53;98233.63;;;38.60;37.11
31239;BME280;17871;31.584;74.450;2023-05-29T08:07:24;98228.44;;;38.58;36.82
31239;BME280;17871;31.584;74.450;2023-05-29T08:10:00;98229.09;;;38.68;37.57
31239;BME280;17871;31.584;74.450;2023-05-29T08:12:44;98228.63;;;38.49;37.21
31239;BME280;17871;31.584;74.450;2023-05-29T08:21:56;98219.59;;;38.09;37.60
31239;BME280;17871;31.584;74.450;2023-05-29T08:24:44;98215.09;;;37.94;38.39
31239;BME280;17871;31.584;74.450;2023-05-29T08:31:01;98212.88;;;37.89;38.91
31239;BME280;17871;31.584;74.450;2023-05-29T08:33:30;98212.13;;;37.47;39.67
31239;BME280;17871;31.584;74.450;2023-05-29T08:36:00;98223.38;;;37.32;40.26
31239;BME280;17871;31.584;74.450;2023-05-29T08:42:29;98201.88;;;37.26;40.73
31239;BME280;17871;31.584;74.450;2023-05-29T08:45:03;98202.31;;;37.47;40.45
31239;BME280;17871;31.584;74.450;2023-05-29T08:47:33;98193.53;;;37.71;39.59
31239;BME280;17871;31.584;74.450;2023-05-29T08:50:19;98189.84;;;37.88;39.00
31239;BME280;17871;31.584;74.450;2023-05-29T08:56:04;98195.31;;;37.62;39.25
31239;BME280;17871;31.584;74.450;2023-05-29T08:58:38;98191.63;;;37.55;39.14
31239;BME280;17871;31.584;74.450;2023-05-29T09:01:10;98179.03;;;37.31;38.93
31239;BME280;17871;31.584;74.450;2023-05-29T09:03:40;98184.19;;;37.17;39.12
31239;BME280;17871;31.584;74.450;2023-05-29T09:06:10;98169.19;;;37.74;38.41
31239;BME280;17871;31.584;74.450;2023-05-29T09:08:39;98170.00;;;38.31;37.94
31239;BME280;17871;31.584;74.450;2023-05-29T09:11:09;98163.53;;;38.50;36.98
31239;BME280;17871;31.584;74.450;2023-05-29T09:13:38;98153.84;;;38.32;37.57
31239;BME280;17871;31.584;74.450;2023-05-29T09:16:11;98153.00;;;38.08;37.44
31239;BME280;17871;31.584;74.450;2023-05-29T09:18:40;98139.69;;;37.91;36.98
31239;BME280;17871;31.584;74.450;2023-05-29T09:21:27;98143.94;;;38.57;36.55
31239;BME280;17871;31.584;74.450;2023-05-29T09:24:04;98141.56;;;38.70;35.87
31239;BME280;17871;31.584;74.450;2023-05-29T09:26:37;98133.44;;;38.56;35.74
31239;BME280;17871;31.584;74.450;2023-05-29T09:29:09;98128.31;;;38.38;36.56
31239;BME280;17871;31.584;74.450;2023-05-29T09:31:52;98130.09;;;38.62;36.89
31239;BME280;17871;31.584;74.450;2023-05-29T09:34:24;98122.69;;;38.72;37.13
31239;BME280;17871;31.584;74.450;2023-05-29T09:37:06;98122.41;;;38.59;37.33
31239;BME280;17871;31.584;74.450;2023-05-29T09:42:10;98124.19;;;38.82;36.32
31239;BME280;17871;31.584;74.450;2023-05-29T09:44:40;98121.06;;;38.63;36.30
31239;BME280;17871;31.584;74.450;2023-05-29T09:47:14;98105.25;;;38.37;37.00
31239;BME280;17871;31.584;74.450;2023-05-29T09:49:45;98109.59;;;38.46;36.96
31239;BME280;17871;31.584;74.450;2023-05-29T09:52:21;98107.25;;;38.35;36.94
31239;BME280;17871;31.584;74.450;2023-05-29T09:54:51;98094.28;;;38.08;37.50
31239;BME280;17871;31.584;74.450;2023-05-29T09:57:23;98092.75;;;38.46;37.36
31239;BME280;17871;31.584;74.450;2023-05-29T11:31:07;98087.97;;;37.76;32.72
31239;BME280;17871;31.584;74.450;2023-05-29T11:33:40;98085.78;;;38.04;32.24
31239;BME280;17871;31.584;74.450;2023-05-29T12:14:33;98138.28;;;36.12;38.93
31239;BME280;17871;31.584;74.450;2023-05-29T12:17:23;98135.28;;;35.26;41.91
31239;BME280;17871;31.584;74.450;2023-05-29T12:19:52;98137.94;;;34.16;44.11
31239;BME280;17871;31.584;74.450;2023-05-29T12:22:35;98148.47;;;33.20;46.58
31239;BME280;17871;31.584;74.450;2023-05-29T12:25:25;98143.22;;;33.49;46.06
31239;BME280;17871;31.584;74.450;2023-05-29T12:27:56;98148.25;;;33.42;46.58
31239;BME280;17871;31.584;74.450;2023-05-29T12:30:26;98151.25;;;33.18;47.77
31239;BME280;17871;31.584;74.450;2023-05-29T12:33:00;98148.75;;;32.56;48.74
31239;BME280;17871;31.584;74.450;2023-05-29T12:35:30;98148.28;;;33.02;48.24
31239;BME280;17871;31.584;74.450;2023-05-29T12:38:05;98146.38;;;33.14;47.90
31239;BME280;17871;31.584;74.450;2023-05-29T12:40:37;98149.19;;;32.92;48.35
31239;BME280;17871;31.584;74.450;2023-05-29T12:43:07;98144.84;;;33.11;47.96
31239;BME280;17871;31.584;74.450;2023-05-29T12:45:40;98146.78;;;33.09;47.99
31239;BME280;17871;31.584;74.450;2023-05-29T12:48:09;98152.16;;;32.17;50.77
31239;BME280;17871;31.584;74.450;2023-05-29T12:50:40;98140.00;;;32.35;50.21
31239;BME280;17871;31.584;74.450;2023-05-29T12:53:11;98136.84;;;32.62;49.51
31239;BME280;17871;31.584;74.450;2023-05-29T12:55:44;98130.22;;;32.26;48.47
31239;BME280;17871;31.584;74.450;2023-05-29T12:58:15;98132.00;;;32.46;48.07
31239;BME280;17871;31.584;74.450;2023-05-29T13:00:45;98125.81;;;32.36;47.79
31239;BME280;17871;31.584;74.450;2023-05-29T13:03:14;98117.09;;;32.24;47.74
31239;BME280;17871;31.584;74.450;2023-05-29T13:05:44;98129.53;;;32.24;47.22
31239;BME280;17871;31.584;74.450;2023-05-29T13:08:13;98131.06;;;32.06;47.31
31239;BME280;17871;31.584;74.450;2023-05-29T13:10:43;98135.72;;;31.61;48.90
31239;BME280;17871;31.584;74.450;2023-05-29T13:13:13;98137.50;;;31.60;49.11
31239;BME280;17871;31.584;74.450;2023-05-29T13:15:42;98141.88;;;31.50;49.47
31239;BME280;17871;31.584;74.450;2023-05-29T13:18:11;98151.50;;;31.51;49.43
31239;BME280;17871;31.584;74.450;2023-05-29T13:20:40;98151.72;;;31.48;49.03
31239;BME280;17871;31.584;74.450;2023-05-29T13:23:09;98152.75;;;31.03;49.70
31239;BME280;17871;31.584;74.450;2023-05-29T13:25:38;98150.44;;;31.20;49.46
31239;BME280;17871;31.584;74.450;2023-05-29T13:28:07;98158.97;;;31.13;50.07
31239;BME280;17871;31.584;74.450;2023-05-29T13:30:37;98157.22;;;31.02;50.73
31239;BME280;17871;31.584;74.450;2023-05-29T13:33:06;98161.41;;;30.71;51.42
31239;BME280;17871;31.584;74.450;2023-05-29T13:35:35;98163.56;;;31.00;50.80
31239;BME280;17871;31.584;74.450;2023-05-29T13:38:04;98171.84;;;30.84;51.65
31239;BME280;17871;31.584;74.450;2023-05-29T13:40:33;98167.41;;;30.84;51.58
31239;BME280;17871;31.584;74.450;2023-05-29T13:43:03;98161.16;;;30.85;51.80
31239;BME280;17871;31.584;74.450;2023-05-29T13:45:31;98156.34;;;30.79;52.07
31239;BME280;17871;31.584;74.450;2023-05-29T13:48:01;98147.34;;;30.60;53.13
31239;BME280;17871;31.584;74.450;2023-05-29T13:50:30;98148.69;;;30.54;53.18
31239;BME280;17871;31.584;74.450;2023-05-29T13:53:00;98146.53;;;30.59;52.90
31239;BME280;17871;31.584;74.450;2023-05-29T13:55:29;98147.47;;;30.80;52.52
31239;BME280;17871;31.584;74.450;2023-05-29T13:57:58;98145.06;;;30.66;52.92
31239;BME280;17871;31.584;74.450;2023-05-29T14:00:27;98152.50;;;30.39;53.44
31239;BME280;17871;31.584;74.450;2023-05-29T14:02:56;98151.75;;;30.26;53.94
31239;BME280;17871;31.584;74.450;2023-05-29T14:05:25;98142.94;;;30.49;53.56
31239;BME280;17871;31.584;74.450;2023-05-29T14:07:55;98147.00;;;30.64;53.20
31239;BME280;17871;31.584;74.450;2023-05-29T14:10:24;98146.75;;;30.45;52.94
31239;BME280;17871;31.584;74.450;2023-05-29T14:12:53;98142.88;;;30.38;53.26
31239;BME280;17871;31.584;74.450;2023-05-29T14:15:22;98147.69;;;30.33;53.63
31239;BME280;17871;31.584;74.450;2023-05-29T14:17:51;98158.72;;;30.38;53.91
31239;BME280;17871;31.584;74.450;2023-05-29T14:20:20;98161.75;;;30.67;52.96
31239;BME280;17871;31.584;74.450;2023-05-29T14:22:49;98174.72;;;30.81;52.27
31239;BME280;17871;31.584;74.450;2023-05-29T14:25:18;98175.53;;;30.93;52.03
31239;BME280;17871;31.584;74.450;2023-05-29T14:27:48;98175.91;;;30.66;52.92
31239;BME280;17871;31.584;74.450;2023-05-29T14:30:17;98184.44;;;30.58;53.08
31239;BME280;17871;31.584;74.450;2023-05-29T14:32:46;98188.97;;;30.45;53.42
31239;BME280;17871;31.584;74.450;2023-05-29T14:35:16;98195.44;;;30.52;52.53
31239;BME280;17871;31.584;74.450;2023-05-29T14:37:45;98193.63;;;30.42;52.86
31239;BME280;17871;31.584;74.450;2023-05-29T14:40:15;98202.50;;;30.63;52.46
31239;BME280;17871;31.584;74.450;2023-05-29T14:42:44;98197.84;;;30.55;52.23
31239;BME280;17871;31.584;74.450;2023-05-29T14:45:16;98200.19;;;30.36;52.99
31239;BME280;17871;31.584;74.450;2023-05-29T14:47:45;98207.66;;;30.53;52.91
31239;BME280;17871;31.584;74.450;2023-05-29T14:50:15;98211.66;;;30.59;52.71
31239;BME280;17871;31.584;74.450;2023-05-29T14:52:44;98203.72;;;30.59;52.15
31239;BME280;17871;31.584;74.450;2023-05-29T14:55:13;98212.88;;;30.31;52.88
31239;BME280;17871;31.584;74.450;2023-05-29T14:57:45;98207.66;;;30.53;52.63
31239;BME280;17871;31.584;74.450;2023-05-29T15:00:14;98204.19;;;30.42;52.61
31239;BME280;17871;31.584;74.450;2023-05-29T15:02:46;98210.78;;;30.47;52.45
31239;BME280;17871;31.584;74.450;2023-05-29T15:05:15;98212.50;;;30.59;52.18
31239;BME280;17871;31.584;74.450;2023-05-29T15:07:44;98225.56;;;30.61;52.61
31239;BME280;17871;31.584;74.450;2023-05-29T15:10:14;98221.06;;;30.39;52.54
31239;BME280;17871;31.584;74.450;2023-05-29T15:12:46;98223.88;;;30.49;52.14
31239;BME280;17871;31.584;74.450;2023-05-29T15:15:15;98222.34;;;30.33;52.68
31239;BME280;17871;31.584;74.450;2023-05-29T15:21:43;98212.97;;;30.64;51.67
31239;BME280;17871;31.584;74.450;2023-05-29T15:24:13;98214.72;;;30.42;52.19
31239;BME280;17871;31.584;74.450;2023-05-29T15:26:42;98213.38;;;30.36;52.17
31239;BME280;17871;31.584;74.450;2023-05-29T15:29:11;98213.13;;;30.39;52.37
31239;BME280;17871;31.584;74.450;2023-05-29T15:31:40;98210.78;;;30.47;52.05
31239;BME280;17871;31.584;74.450;2023-05-29T15:34:09;98212.69;;;30.56;51.91
31239;BME280;17871;31.584;74.450;2023-05-29T15:36:38;98216.59;;;30.28;52.73
31239;BME280;17871;31.584;74.450;2023-05-29T15:39:07;98226.13;;;30.42;52.38
31239;BME280;17871;31.584;74.450;2023-05-29T15:41:36;98229.00;;;30.50;52.73
31239;BME280;17871;31.584;74.450;2023-05-29T15:44:06;98238.59;;;30.51;53.27
31239;BME280;17871;31.584;74.450;2023-05-29T15:46:35;98249.72;;;30.44;53.38
31239;BME280;17871;31.584;74.450;2023-05-29T15:49:04;98242.38;;;30.36;53.28
31239;BME280;17871;31.584;74.450;2023-05-29T15:51:33;98258.44;;;30.33;53.51
31239;BME280;17871;31.584;74.450;2023-05-29T15:54:05;98250.06;;;30.39;53.46
31239;BME280;17871;31.584;74.450;2023-05-29T15:56:34;98256.78;;;30.43;53.11
31239;BME280;17871;31.584;74.450;2023-05-29T15:59:03;98268.72;;;30.60;52.85
31239;BME280;17871;31.584;74.450;2023-05-29T16:01:33;98258.66;;;30.65;52.58
31239;BME280;17871;31.584;74.450;2023-05-29T16:04:02;98262.00;;;30.67;52.67
31239;BME280;17871;31.584;74.450;2023-05-29T16:06:32;98268.03;;;30.69;52.25
31239;BME280;17871;31.584;74.450;2023-05-29T16:09:01;98273.88;;;30.61;52.13
31239;BME280;17871;31.584;74.450;2023-05-29T16:14:37;98276.00;;;30.56;51.90
31239;BME280;17871;31.584;74.450;2023-05-29T16:17:06;98282.28;;;30.66;51.76
31239;BME280;17871;31.584;74.450;2023-05-29T16:19:36;98290.56;;;30.62;51.79
31239;BME280;17871;31.584;74.450;2023-05-29T16:22:06;98300.63;;;30.68;52.26
31239;BME280;17871;31.584;74.450;2023-05-29T16:24:38;98310.59;;;30.64;51.83
31239;BME280;17871;31.584;74.450;2023-05-29T16:27:07;98328.09;;;30.65;51.32
31239;BME280;17871;31.584;74.450;2023-05-29T16:29:37;98336.13;;;30.64;51.37
31239;BME280;17871;31.584;74.450;2023-05-29T16:32:06;98345.91;;;30.85;51.31
31239;BME280;17871;31.584;74.450;2023-05-29T16:34:36;98363.97;;;30.68;51.48
31239;BME280;17871;31.584;74.450;2023-05-29T16:37:06;98384.94;;;30.69;51.63
31239;BME280;17871;31.584;74.450;2023-05-29T16:39:38;98395.00;;;30.64;52.29
31239;BME280;17871;31.584;74.450;2023-05-29T16:42:08;98402.84;;;30.66;51.98
31239;BME280;17871;31.584;74.450;2023-05-29T16:44:37;98414.41;;;30.52;52.86
31239;BME280;17871;31.584;74.450;2023-05-29T16:47:06;98420.47;;;30.42;51.60
31239;BME280;17871;31.584;74.450;2023-05-29T16:49:36;98417.50;;;30.46;51.94
31239;BME280;17871;31.584;74.450;2023-05-29T16:52:06;98424.13;;;30.39;52.48